Time;durP1;ratioP1;P1;durP2;ratioP2;P2;SDS_P1;SDS_P2;PMS_P1;PMS_P2;Temp;Humidity;BMP_temperature;BMP_pressure;BME280_temperature;BME280_humidity;BME280_pressure;Samples;Min_cycle;Max_cycle;Signal;HPM_P1;HPM_P2
2021/05/08 00:00:32;;;;;;;6.63;2.60;;;5.30;99.90;;;;;;5036256;28;20630;-93
2021/05/08 00:02:58;;;;;;;5.17;2.83;;;5.40;99.90;;;;;;5036230;28;20293;-93
2021/05/08 00:05:24;;;;;;;5.53;2.77;;;5.40;99.90;;;;;;5036692;28;20553;-92
2021/05/08 00:07:50;;;;;;;3.87;2.33;;;5.30;99.90;;;;;;5035979;28;20260;-94
2021/05/08 00:10:17;;;;;;;3.77;2.30;;;5.30;99.90;;;;;;5036394;28;20171;-94
2021/05/08 00:12:44;;;;;;;3.50;2.30;;;5.30;99.90;;;;;;5036659;28;20206;-93
2021/05/08 00:15:12;;;;;;;4.23;2.47;;;5.20;99.90;;;;;;5036641;28;20638;-93
2021/05/08 00:17:39;;;;;;;3.03;2.20;;;5.20;99.90;;;;;;5035890;28;20509;-92
2021/05/08 00:20:10;;;;;;;2.97;2.27;;;5.10;99.90;;;;;;5037067;28;20236;-94
2021/05/08 00:22:35;;;;;;;4.83;2.30;;;5.10;99.90;;;;;;5036833;28;20206;-93
2021/05/08 00:25:04;;;;;;;4.37;2.60;;;5.00;99.90;;;;;;5037765;28;20189;-93
2021/05/08 00:27:30;;;;;;;3.87;2.30;;;5.00;99.90;;;;;;5038099;28;20198;-92
2021/05/08 00:29:55;;;;;;;4.73;2.30;;;4.90;99.90;;;;;;5036924;28;20673;-94
2021/05/08 00:32:21;;;;;;;3.97;2.33;;;5.00;99.90;;;;;;5036486;28;20729;-91
2021/05/08 00:34:47;;;;;;;7.90;2.20;;;4.90;99.90;;;;;;5036326;28;20163;-91
2021/05/08 00:37:12;;;;;;;3.27;2.13;;;4.90;99.90;;;;;;5036053;28;20185;-93
2021/05/08 00:39:38;;;;;;;5.10;2.57;;;4.90;99.90;;;;;;5036641;28;20193;-93
2021/05/08 00:42:04;;;;;;;3.70;2.40;;;4.90;99.90;;;;;;5036768;28;20387;-93
2021/05/08 00:44:30;;;;;;;6.63;2.57;;;4.90;99.90;;;;;;5038080;28;20245;-93
2021/05/08 00:46:57;;;;;;;5.57;2.40;;;4.80;99.90;;;;;;5384146;23;20230;-93
2021/05/08 00:49:27;;;;;;;6.53;2.60;;;4.80;99.90;;;;;;5043798;28;20226;-93
2021/05/08 00:51:56;;;;;;;4.63;2.07;;;4.80;99.90;;;;;;5043527;28;20205;-92
2021/05/08 00:54:22;;;;;;;4.23;2.57;;;4.80;99.90;;;;;;5043889;28;20179;-93
2021/05/08 00:56:48;;;;;;;3.27;2.40;;;4.80;99.90;;;;;;5044576;28;20175;-93
2021/05/08 00:59:15;;;;;;;3.77;2.43;;;4.70;99.90;;;;;;5052800;23;20240;-94
2021/05/08 01:01:42;;;;;;;7.07;2.57;;;4.80;99.90;;;;;;5056922;28;20247;-94
2021/05/08 01:04:09;;;;;;;3.53;2.33;;;4.70;99.90;;;;;;5056073;28;20173;-93
2021/05/08 01:06:35;;;;;;;3.60;2.40;;;4.70;99.90;;;;;;5057348;28;20170;-95
2021/05/08 01:09:02;;;;;;;4.50;2.50;;;4.70;99.90;;;;;;5057003;28;20197;-94
2021/05/08 01:11:28;;;;;;;6.23;2.57;;;4.80;99.90;;;;;;5056297;28;20268;-94
2021/05/08 01:13:54;;;;;;;4.43;2.20;;;4.80;99.90;;;;;;5056654;28;20171;-94
2021/05/08 01:16:20;;;;;;;3.27;2.20;;;4.80;99.90;;;;;;5056112;28;20606;-93
2021/05/08 01:18:51;;;;;;;4.77;2.27;;;4.80;99.90;;;;;;5056475;28;20174;-94
2021/05/08 01:21:19;;;;;;;4.63;2.40;;;4.80;99.90;;;;;;5056448;28;20196;-94
2021/05/08 01:23:47;;;;;;;3.80;2.33;;;4.80;99.90;;;;;;5056845;28;20224;-94
2021/05/08 01:26:13;;;;;;;4.70;2.60;;;4.90;99.90;;;;;;5057397;28;20163;-96
2021/05/08 01:28:39;;;;;;;5.70;2.33;;;4.90;99.90;;;;;;5056808;28;20700;-95
2021/05/08 01:31:06;;;;;;;5.50;2.93;;;4.90;99.90;;;;;;5056483;28;20615;-96
2021/05/08 01:33:32;;;;;;;5.40;2.30;;;4.90;99.90;;;;;;5056148;28;20280;-93
2021/05/08 01:35:57;;;;;;;4.30;2.40;;;4.90;99.90;;;;;;5057350;28;20197;-92
2021/05/08 01:38:25;;;;;;;4.20;2.23;;;4.90;99.90;;;;;;5056196;28;20178;-93
2021/05/08 01:41:02;;;;;;;5.03;2.40;;;4.90;99.90;;;;;;5055533;28;20641;-94
2021/05/08 01:43:28;;;;;;;2.53;1.77;;;4.90;99.90;;;;;;5055119;28;20251;-93
2021/05/08 01:45:55;;;;;;;3.57;2.30;;;4.90;99.90;;;;;;5055227;28;20207;-92
2021/05/08 01:48:22;;;;;;;4.93;2.60;;;4.90;99.90;;;;;;5054738;28;20205;-94
2021/05/08 01:50:48;;;;;;;6.47;2.57;;;4.90;99.90;;;;;;5054426;28;20192;-93
2021/05/08 01:53:13;;;;;;;4.00;2.20;;;4.90;99.90;;;;;;5054393;28;20194;-91
2021/05/08 01:55:39;;;;;;;5.43;1.87;;;4.90;99.90;;;;;;5054772;28;20247;-92
2021/05/08 01:58:06;;;;;;;4.03;2.73;;;4.90;99.90;;;;;;5054941;28;20204;-92
2021/05/08 02:00:36;;;;;;;3.07;2.20;;;4.90;99.90;;;;;;5055295;28;20268;-94
2021/05/08 02:03:04;;;;;;;4.93;2.80;;;4.90;99.90;;;;;;5054927;28;20201;-90
2021/05/08 02:05:32;;;;;;;2.53;2.07;;;4.90;99.90;;;;;;5054884;28;20265;-96
2021/05/08 02:08:03;;;;;;;5.33;2.93;;;4.90;99.90;;;;;;5054826;28;20197;-95
2021/05/08 02:10:29;;;;;;;4.47;2.30;;;4.90;99.90;;;;;;5055315;28;20197;-92
2021/05/08 02:13:03;;;;;;;4.47;2.20;;;4.90;99.90;;;;;;5054447;28;20280;-92
2021/05/08 02:15:28;;;;;;;2.80;2.27;;;4.90;99.90;;;;;;5056028;28;20525;-95
2021/05/08 02:17:54;;;;;;;4.93;2.37;;;5.00;99.90;;;;;;5054520;28;20248;-92
2021/05/08 02:20:31;;;;;;;5.03;2.90;;;5.00;99.90;;;;;;5054619;28;20614;-93
2021/05/08 02:23:01;;;;;;;3.53;2.43;;;5.00;99.90;;;;;;5054184;28;20205;-95
2021/05/08 02:25:27;;;;;;;4.97;2.50;;;5.10;99.90;;;;;;5053591;28;20193;-94
2021/05/08 02:27:54;;;;;;;4.10;2.67;;;5.10;99.90;;;;;;5054560;28;20296;-94
2021/05/08 02:30:22;;;;;;;5.63;2.87;;;5.10;99.90;;;;;;5054968;28;20170;-95
2021/05/08 02:32:49;;;;;;;5.17;2.30;;;5.10;99.90;;;;;;5053445;28;20252;-92
2021/05/08 02:35:18;;;;;;;14.60;3.53;;;5.10;99.90;;;;;;5053494;28;20364;-94
2021/05/08 02:37:45;;;;;;;3.93;2.37;;;5.20;99.90;;;;;;5053462;28;20174;-91
2021/05/08 02:40:14;;;;;;;3.60;2.17;;;5.20;99.90;;;;;;5053868;28;20248;-94
2021/05/08 02:42:41;;;;;;;6.77;2.60;;;5.20;99.90;;;;;;5053811;28;20225;-93
2021/05/08 02:45:09;;;;;;;3.43;2.60;;;5.20;99.90;;;;;;5054622;28;20166;-95
2021/05/08 02:47:39;;;;;;;4.77;2.47;;;5.10;99.90;;;;;;5054060;28;20294;-94
2021/05/08 02:50:07;;;;;;;4.10;2.70;;;5.20;99.90;;;;;;5054166;28;20177;-93
2021/05/08 02:52:33;;;;;;;3.20;2.43;;;5.20;99.90;;;;;;5053366;28;20229;-95
2021/05/08 02:54:59;;;;;;;5.17;2.97;;;5.20;99.90;;;;;;5053077;28;20205;-92
2021/05/08 02:57:25;;;;;;;3.87;2.40;;;5.20;99.90;;;;;;5052974;28;20618;-94
2021/05/08 02:59:50;;;;;;;3.80;2.50;;;5.20;99.90;;;;;;5052963;28;20313;-93
2021/05/08 03:02:16;;;;;;;4.83;2.30;;;5.20;99.90;;;;;;5053225;28;20201;-92
2021/05/08 03:04:42;;;;;;;3.30;2.37;;;5.30;99.90;;;;;;5053700;28;20245;-96
2021/05/08 03:07:08;;;;;;;4.10;2.83;;;5.20;99.90;;;;;;5053679;28;20174;-93
2021/05/08 03:09:34;;;;;;;3.80;2.37;;;5.20;99.90;;;;;;5053384;28;20205;-92
2021/05/08 03:12:01;;;;;;;4.40;2.60;;;5.30;99.90;;;;;;5053494;28;20202;-95
2021/05/08 03:14:28;;;;;;;5.30;2.50;;;5.20;99.90;;;;;;5053071;28;20178;-94
2021/05/08 03:16:54;;;;;;;9.47;2.47;;;5.20;99.90;;;;;;5052988;28;20178;-94
2021/05/08 03:19:20;;;;;;;6.97;2.87;;;5.20;99.90;;;;;;5053186;28;20186;-95
2021/05/08 03:21:46;;;;;;;5.37;2.83;;;5.20;99.90;;;;;;5053377;28;20662;-94
2021/05/08 03:24:12;;;;;;;4.57;2.50;;;5.10;99.90;;;;;;5056162;28;20256;-93
2021/05/08 03:26:38;;;;;;;3.30;2.57;;;5.20;99.90;;;;;;5057070;28;20619;-93
2021/05/08 03:29:05;;;;;;;3.93;2.80;;;5.10;99.90;;;;;;5057578;28;20607;-92
2021/05/08 03:31:32;;;;;;;4.23;2.70;;;5.10;99.90;;;;;;5057087;28;20177;-96
2021/05/08 03:33:58;;;;;;;4.77;2.60;;;5.10;99.90;;;;;;5056797;28;20174;-92
2021/05/08 03:36:23;;;;;;;3.63;2.23;;;5.10;99.90;;;;;;5056531;28;20166;-93
2021/05/08 03:38:49;;;;;;;5.17;2.57;;;5.10;99.90;;;;;;5056867;28;20621;-94
2021/05/08 03:41:15;;;;;;;4.30;2.70;;;5.10;99.90;;;;;;5057511;28;20182;-92
2021/05/08 03:43:40;;;;;;;4.53;2.77;;;5.10;99.90;;;;;;5057667;28;20201;-94
2021/05/08 03:46:06;;;;;;;7.27;2.73;;;5.10;99.90;;;;;;5056759;28;20279;-92
2021/05/08 03:48:32;;;;;;;5.97;2.53;;;5.10;99.90;;;;;;5056847;28;20198;-93
2021/05/08 03:50:58;;;;;;;4.00;2.67;;;5.10;99.90;;;;;;5056780;28;20166;-94
2021/05/08 03:53:24;;;;;;;6.37;3.00;;;5.00;99.90;;;;;;5056913;28;20530;-94
2021/05/08 03:55:51;;;;;;;5.47;3.00;;;5.10;99.90;;;;;;5056392;28;20184;-92
2021/05/08 03:58:29;;;;;;;6.67;2.70;;;5.00;99.90;;;;;;5056661;28;20174;-94
2021/05/08 04:00:56;;;;;;;5.67;2.83;;;5.00;99.90;;;;;;5056657;28;20239;-95
2021/05/08 04:03:23;;;;;;;8.20;3.07;;;5.00;99.90;;;;;;5056754;28;20240;-95
2021/05/08 04:05:49;;;;;;;4.43;3.03;;;5.00;99.90;;;;;;5057912;28;20182;-95
2021/05/08 04:08:15;;;;;;;4.87;3.20;;;4.90;99.90;;;;;;5057858;28;20194;-94
2021/05/08 04:10:44;;;;;;;3.57;2.63;;;4.90;99.90;;;;;;5056705;28;20169;-93
2021/05/08 04:13:13;;;;;;;5.53;3.10;;;4.90;99.90;;;;;;5056554;28;20225;-95
2021/05/08 04:15:38;;;;;;;5.73;3.10;;;4.90;99.90;;;;;;5056892;28;20614;-93
2021/05/08 04:18:04;;;;;;;5.30;2.80;;;4.90;99.90;;;;;;5056841;28;20188;-95
2021/05/08 04:20:30;;;;;;;4.70;3.23;;;4.90;99.90;;;;;;5057389;28;20208;-94
2021/05/08 04:22:56;;;;;;;3.47;2.87;;;4.90;99.90;;;;;;5056280;28;20288;-93
2021/05/08 04:25:21;;;;;;;4.30;2.90;;;4.80;99.90;;;;;;5055902;28;20174;-93
2021/05/08 04:27:47;;;;;;;4.10;3.07;;;4.90;99.90;;;;;;5055872;28;20202;-93
2021/05/08 04:30:14;;;;;;;4.60;2.57;;;4.90;99.90;;;;;;5055784;28;20217;-94
2021/05/08 04:32:40;;;;;;;7.43;3.00;;;4.90;99.90;;;;;;5056037;28;20217;-95
2021/05/08 04:35:07;;;;;;;4.20;3.20;;;4.90;99.90;;;;;;5055308;28;20644;-94
2021/05/08 04:37:32;;;;;;;4.90;3.10;;;4.90;99.90;;;;;;5056531;28;20224;-93
2021/05/08 04:39:58;;;;;;;4.83;3.60;;;4.90;99.90;;;;;;5056391;28;20205;-92
2021/05/08 04:42:24;;;;;;;4.60;3.50;;;5.00;99.90;;;;;;5056058;28;20202;-94
2021/05/08 04:44:49;;;;;;;4.43;3.23;;;5.10;99.90;;;;;;5055250;28;20622;-92
2021/05/08 04:47:16;;;;;;;6.17;3.20;;;5.20;99.90;;;;;;5055314;28;20166;-93
2021/05/08 04:49:42;;;;;;;6.17;3.47;;;5.30;99.90;;;;;;5054794;28;20178;-95
2021/05/08 04:52:08;;;;;;;4.27;3.30;;;5.40;99.90;;;;;;5054877;28;20201;-95
2021/05/08 04:54:33;;;;;;;5.20;3.43;;;5.50;99.90;;;;;;5055089;28;20170;-94
2021/05/08 04:56:59;;;;;;;5.03;4.00;;;5.60;99.90;;;;;;5055529;28;20522;-94
2021/05/08 04:59:25;;;;;;;5.47;3.50;;;5.70;99.90;;;;;;5054705;28;20233;-95
2021/05/08 05:01:50;;;;;;;4.87;3.40;;;5.70;99.90;;;;;;5054766;28;20263;-94
2021/05/08 05:04:16;;;;;;;9.03;4.33;;;5.80;99.90;;;;;;5054918;28;20269;-96
2021/05/08 05:06:42;;;;;;;4.23;3.63;;;5.90;99.90;;;;;;5055120;28;20177;-94
2021/05/08 05:09:08;;;;;;;7.07;4.10;;;5.90;99.90;;;;;;5056967;28;20284;-96
2021/05/08 05:11:33;;;;;;;7.50;4.07;;;6.00;99.90;;;;;;5057973;28;20212;-93
2021/05/08 05:14:00;;;;;;;10.83;5.00;;;6.00;99.90;;;;;;5058913;28;20170;-94
2021/05/08 05:16:26;;;;;;;6.80;5.07;;;6.00;99.90;;;;;;5056466;28;20162;-92
2021/05/08 05:18:52;;;;;;;6.63;5.13;;;6.10;99.90;;;;;;5055005;28;20173;-95
2021/05/08 05:21:17;;;;;;;7.87;5.60;;;6.10;99.90;;;;;;5055722;28;20256;-95
2021/05/08 05:23:43;;;;;;;9.17;6.30;;;6.20;99.90;;;;;;5057494;28;20201;-92
2021/05/08 05:26:09;;;;;;;7.90;6.50;;;6.20;99.90;;;;;;5056743;28;20166;-94
2021/05/08 05:28:35;;;;;;;8.90;7.37;;;6.30;99.90;;;;;;5056894;28;20232;-92
2021/05/08 05:31:10;;;;;;;10.30;7.17;;;6.30;99.90;;;;;;5055466;28;20463;-96
2021/05/08 05:33:37;;;;;;;10.77;7.57;;;6.30;99.90;;;;;;5055187;28;20204;-93
2021/05/08 05:36:04;;;;;;;9.33;6.97;;;6.40;99.90;;;;;;5058143;28;20236;-94
2021/05/08 05:38:31;;;;;;;9.37;8.10;;;6.40;99.90;;;;;;5056222;28;20178;-96
2021/05/08 05:40:57;;;;;;;10.73;7.63;;;6.40;99.90;;;;;;5055437;28;20210;-93
2021/05/08 05:43:22;;;;;;;7.50;6.07;;;6.40;99.90;;;;;;5055299;28;20217;-94
2021/05/08 05:45:49;;;;;;;7.97;7.00;;;6.50;99.90;;;;;;5055210;28;20184;-96
2021/05/08 05:48:14;;;;;;;9.00;6.73;;;6.60;99.90;;;;;;5054761;28;20197;-93
2021/05/08 05:50:42;;;;;;;10.13;7.57;;;6.70;99.90;;;;;;5054891;28;20162;-96
2021/05/08 05:53:09;;;;;;;8.00;6.73;;;6.70;99.90;;;;;;5054729;28;20190;-95
2021/05/08 05:55:34;;;;;;;10.53;7.53;;;6.80;99.90;;;;;;5054332;28;20252;-96
2021/05/08 05:58:01;;;;;;;10.07;7.43;;;6.80;99.90;;;;;;5055826;28;20201;-96
2021/05/08 06:00:28;;;;;;;9.20;6.83;;;7.00;99.90;;;;;;5054404;28;20295;-94
2021/05/08 06:02:53;;;;;;;9.07;7.13;;;7.00;99.90;;;;;;5056731;28;20202;-95
2021/05/08 06:05:19;;;;;;;10.33;7.50;;;7.10;99.90;;;;;;5054663;28;20580;-94
2021/05/08 06:07:45;;;;;;;8.60;7.70;;;7.20;99.90;;;;;;5054651;28;20198;-94
2021/05/08 06:10:14;;;;;;;7.60;6.53;;;7.30;99.90;;;;;;5058919;28;20227;-93
2021/05/08 06:12:39;;;;;;;10.30;6.80;;;7.30;99.90;;;;;;5055838;28;20562;-94
2021/05/08 06:15:07;;;;;;;9.30;6.33;;;7.40;99.90;;;;;;5054664;28;20170;-95
2021/05/08 06:17:33;;;;;;;8.17;6.77;;;7.40;99.90;;;;;;5056628;28;20593;-92
2021/05/08 06:19:59;;;;;;;8.40;6.83;;;7.50;99.90;;;;;;5056237;28;20257;-94
2021/05/08 06:22:25;;;;;;;8.33;7.07;;;7.60;99.90;;;;;;5055899;28;20236;-96
2021/05/08 06:24:51;;;;;;;10.67;6.90;;;7.60;99.90;;;;;;5055474;28;20625;-94
2021/05/08 06:27:17;;;;;;;10.17;7.07;;;7.80;99.90;;;;;;5056008;28;20166;-94
2021/05/08 06:29:44;;;;;;;8.30;6.73;;;7.90;99.90;;;;;;5054722;28;20569;-96
2021/05/08 06:32:10;;;;;;;8.97;6.60;;;8.00;99.90;;;;;;5054945;28;20604;-93
2021/05/08 06:34:36;;;;;;;13.47;7.13;;;8.10;99.90;;;;;;5056205;28;20162;-96
2021/05/08 06:37:05;;;;;;;9.30;7.00;;;8.20;99.90;;;;;;5056277;28;20705;-93
2021/05/08 06:39:32;;;;;;;10.47;7.23;;;8.30;99.90;;;;;;5057811;28;20170;-95
2021/05/08 06:41:58;;;;;;;8.77;6.70;;;8.30;99.90;;;;;;5055427;28;20197;-94
2021/05/08 06:44:25;;;;;;;9.63;6.40;;;8.30;99.90;;;;;;5056584;28;20281;-94
2021/05/08 06:46:56;;;;;;;12.97;7.10;;;8.40;99.90;;;;;;5056099;28;20189;-93
2021/05/08 06:49:22;;;;;;;7.63;6.43;;;8.50;99.90;;;;;;5055657;28;20224;-96
2021/05/08 06:51:48;;;;;;;8.53;6.43;;;8.60;99.90;;;;;;5054833;28;20206;-94
2021/05/08 06:54:15;;;;;;;11.60;6.60;;;8.70;99.90;;;;;;5054820;28;20170;-94
2021/05/08 06:56:42;;;;;;;8.87;6.07;;;8.90;99.90;;;;;;5055661;28;20316;-94
2021/05/08 06:59:08;;;;;;;9.00;6.40;;;8.90;99.90;;;;;;5060795;28;20232;-93
2021/05/08 07:01:38;;;;;;;10.70;5.57;;;9.00;99.90;;;;;;5060417;28;20177;-93
2021/05/08 07:04:18;;;;;;;10.10;6.07;;;9.10;99.90;;;;;;5059554;28;20180;-96
2021/05/08 07:06:47;;;;;;;8.43;5.73;;;9.20;99.90;;;;;;5060535;28;20178;-96
2021/05/08 07:09:27;;;;;;;9.40;5.63;;;9.20;99.90;;;;;;5059377;28;20225;-95
2021/05/08 07:11:55;;;;;;;6.80;5.63;;;9.30;99.90;;;;;;5060107;28;20204;-96
2021/05/08 07:14:21;;;;;;;6.70;6.00;;;9.40;99.90;;;;;;5059252;28;20170;-94
2021/05/08 07:16:47;;;;;;;9.43;5.60;;;9.50;99.90;;;;;;5059425;28;20166;-94
2021/05/08 07:19:12;;;;;;;7.57;4.70;;;9.50;99.90;;;;;;5059283;28;20189;-96
2021/05/08 07:21:38;;;;;;;8.47;5.53;;;9.70;99.90;;;;;;5059362;28;20174;-95
2021/05/08 07:24:06;;;;;;;10.17;5.77;;;9.70;99.90;;;;;;5060608;28;20166;-96
2021/05/08 07:26:32;;;;;;;7.90;6.10;;;9.70;99.90;;;;;;5059479;28;20169;-96
2021/05/08 07:28:59;;;;;;;7.23;5.50;;;9.80;99.90;;;;;;5058360;28;20606;-92
2021/05/08 07:31:25;;;;;;;7.37;5.50;;;9.90;99.90;;;;;;5058748;28;20170;-95
2021/05/08 07:33:52;;;;;;;6.63;4.67;;;9.90;99.90;;;;;;5058106;28;20657;-94
2021/05/08 07:36:18;;;;;;;7.70;4.27;;;10.00;99.90;;;;;;5058914;28;20177;-93
2021/05/08 07:38:45;;;;;;;5.40;3.60;;;10.20;99.90;;;;;;5058050;28;20190;-96
2021/05/08 07:41:13;;;;;;;8.23;3.40;;;10.40;99.90;;;;;;5062590;28;20237;-95
2021/05/08 07:43:41;;;;;;;8.70;3.70;;;10.40;99.90;;;;;;5063099;28;20202;-95
2021/05/08 07:46:08;;;;;;;8.13;4.80;;;10.40;99.90;;;;;;5061473;28;20201;-93
2021/05/08 07:49:07;;;;;;;7.93;4.53;;;10.50;99.90;;;;;;5059640;28;20213;-91
2021/05/08 07:51:33;;;;;;;7.67;4.60;;;10.50;99.90;;;;;;5059531;28;20166;-94
2021/05/08 07:54:05;;;;;;;7.70;4.70;;;10.50;99.90;;;;;;5059702;28;20196;-94
2021/05/08 07:56:37;;;;;;;6.60;4.67;;;10.60;99.90;;;;;;5060137;28;20174;-96
2021/05/08 07:59:07;;;;;;;7.40;4.60;;;10.70;99.90;;;;;;5059829;28;20316;-93
2021/05/08 08:01:36;;;;;;;8.83;5.27;;;10.80;99.90;;;;;;5062097;28;20683;-95
2021/05/08 08:04:09;;;;;;;7.87;5.37;;;10.90;99.90;;;;;;5060360;28;20174;-93
2021/05/08 08:06:35;;;;;;;7.07;5.23;;;11.00;99.90;;;;;;5058369;28;20184;-94
2021/05/08 08:09:07;;;;;;;6.77;5.63;;;11.00;99.90;;;;;;5057458;28;20203;-95
2021/05/08 08:11:33;;;;;;;8.63;5.50;;;11.10;98.70;;;;;;5056898;28;20691;-94
2021/05/08 08:14:13;;;;;;;11.43;6.30;;;11.10;99.60;;;;;;5058022;28;20166;-93
2021/05/08 08:16:39;;;;;;;7.53;5.63;;;11.10;99.70;;;;;;5058581;28;20182;-94
2021/05/08 08:19:10;;;;;;;9.43;5.87;;;11.10;99.60;;;;;;5058102;28;20177;-96
2021/05/08 08:21:36;;;;;;;8.07;5.37;;;11.20;99.40;;;;;;5056896;28;20169;-91
2021/05/08 08:24:03;;;;;;;8.43;5.80;;;11.30;99.80;;;;;;5057182;28;20174;-93
2021/05/08 08:26:29;;;;;;;6.13;5.40;;;11.30;99.90;;;;;;5058750;28;20174;-95
2021/05/08 08:28:55;;;;;;;7.17;4.63;;;11.40;99.90;;;;;;5057135;28;20205;-93
2021/05/08 08:31:22;;;;;;;7.73;4.83;;;11.50;97.20;;;;;;5057169;28;20170;-95
2021/05/08 08:33:53;;;;;;;7.15;4.88;;;11.50;98.70;;;;;;5058328;28;20166;-97
2021/05/08 08:36:19;;;;;;;4.93;4.37;;;11.50;98.30;;;;;;5057762;28;20173;-94
2021/05/08 08:38:45;;;;;;;6.77;5.40;;;11.50;97.40;;;;;;5058779;28;20170;-94
2021/05/08 08:41:12;;;;;;;8.30;5.80;;;11.60;98.90;;;;;;5056947;28;20166;-94
2021/05/08 08:43:38;;;;;;;7.70;4.90;;;11.70;98.70;;;;;;5056281;28;20228;-90
2021/05/08 08:46:06;;;;;;;8.40;5.20;;;11.70;98.90;;;;;;5055406;28;20177;-92
2021/05/08 08:48:32;;;;;;;6.57;5.07;;;11.70;99.90;;;;;;5056015;28;20570;-94
2021/05/08 08:50:58;;;;;;;8.82;4.90;;;11.80;99.90;;;;;;5055498;28;20170;-93
2021/05/08 08:53:24;;;;;;;8.90;5.40;;;11.90;99.30;;;;;;5055340;28;20224;-94
2021/05/08 08:55:55;;;;;;;6.97;5.30;;;12.10;99.90;;;;;;5060343;28;20637;-95
2021/05/08 08:58:30;;;;;;;7.28;4.80;;;12.10;99.90;;;;;;5058685;28;20169;-94
2021/05/08 09:01:00;;;;;;;7.10;5.15;;;12.30;99.00;;;;;;5057842;28;20221;-95
2021/05/08 09:03:27;;;;;;;6.03;4.60;;;12.40;98.60;;;;;;5058028;28;20255;-92
2021/05/08 09:05:53;;;;;;;6.68;4.40;;;12.50;99.90;;;;;;5056377;28;20178;-94
2021/05/08 09:08:19;;;;;;;6.20;4.20;;;12.50;97.60;;;;;;5056289;28;20198;-93
2021/05/08 09:10:45;;;;;;;4.82;4.10;;;12.40;97.20;;;;;;5056678;28;20162;-93
2021/05/08 09:13:19;;;;;;;9.13;4.57;;;12.40;97.90;;;;;;5057991;28;20198;-95
2021/05/08 09:15:47;;;;;;;6.03;4.90;;;12.50;96.00;;;;;;5057935;28;20204;-94
2021/05/08 09:18:34;;;;;;;6.13;4.75;;;12.40;95.90;;;;;;5056441;28;20281;-94
2021/05/08 09:21:00;;;;;;;7.07;4.75;;;12.50;96.60;;;;;;5054912;28;20182;-93
2021/05/08 09:23:37;;;;;;;8.15;4.93;;;12.70;99.00;;;;;;5055514;28;20202;-93
2021/05/08 09:26:05;;;;;;;6.05;4.70;;;12.70;98.10;;;;;;5054099;28;20186;-91
2021/05/08 09:28:36;;;;;;;5.65;4.75;;;12.80;98.40;;;;;;5054783;28;20293;-92
2021/05/08 09:31:03;;;;;;;6.70;4.55;;;12.90;97.30;;;;;;5055752;28;20170;-92
2021/05/08 09:33:29;;;;;;;7.20;4.43;;;12.90;97.00;;;;;;5056670;28;20214;-94
2021/05/08 09:36:16;;;;;;;8.18;4.35;;;12.90;96.90;;;;;;5056208;28;20607;-92
2021/05/08 09:38:45;;;;;;;5.22;3.80;;;12.90;98.00;;;;;;5056865;28;20192;-93
2021/05/08 09:41:59;;;;;;;5.53;3.38;;;12.90;97.40;;;;;;5055275;28;20261;-94
2021/05/08 09:44:26;;;;;;;4.50;3.17;;;13.10;98.00;;;;;;5055706;28;20201;-91
2021/05/08 09:47:03;;;;;;;5.70;3.42;;;13.10;95.00;;;;;;5056963;28;20206;-93
2021/05/08 09:49:57;;;;;;;6.40;3.45;;;13.30;92.90;;;;;;5054566;28;20197;-92
2021/05/08 09:52:24;;;;;;;6.95;3.03;;;13.40;95.70;;;;;;5054499;28;20679;-94
2021/05/08 09:55:35;;;;;;;5.28;3.45;;;13.50;94.30;;;;;;5055199;28;20173;-94
2021/05/08 09:58:40;;;;;;;3.47;2.63;;;13.60;94.30;;;;;;5054416;28;20704;-94
2021/05/08 10:01:28;;;;;;;3.90;2.90;;;13.70;90.10;;;;;;5056305;28;20209;-94
2021/05/08 10:07:24;;;;;;;4.70;2.92;;;13.60;92.90;;;;;;5056248;28;20181;-94
2021/05/08 10:09:59;;;;;;;5.13;2.78;;;13.70;93.40;;;;;;5055016;28;20194;-91
2021/05/08 10:12:41;;;;;;;4.65;3.08;;;13.80;93.50;;;;;;5055528;28;20552;-93
2021/05/08 10:15:33;;;;;;;5.68;2.75;;;14.00;92.50;;;;;;5054656;28;20173;-93
2021/05/08 10:18:04;;;;;;;3.75;2.72;;;14.00;93.00;;;;;;5056254;28;20196;-95
2021/05/08 10:20:49;;;;;;;4.63;3.05;;;14.00;92.40;;;;;;5056661;28;20166;-91
2021/05/08 10:23:46;;;;;;;7.32;3.58;;;14.10;94.00;;;;;;5054533;28;20560;-91
2021/05/08 10:26:35;;;;;;;3.90;3.40;;;14.00;90.30;;;;;;5054745;28;20170;-92
2021/05/08 10:29:06;;;;;;;5.60;3.28;;;14.10;93.50;;;;;;5054714;28;20201;-92
2021/05/08 10:31:33;;;;;;;4.75;3.10;;;14.10;92.40;;;;;;5055679;28;20172;-91
2021/05/08 10:34:00;;;;;;;5.05;3.05;;;14.20;93.20;;;;;;5055455;28;20507;-93
2021/05/08 10:37:04;;;;;;;4.20;3.03;;;14.30;93.30;;;;;;5057192;28;20224;-94
2021/05/08 10:39:52;;;;;;;4.78;3.13;;;14.30;87.50;;;;;;5056067;28;20260;-92
2021/05/08 10:42:56;;;;;;;5.28;3.58;;;14.40;91.20;;;;;;5054735;28;20198;-91
2021/05/08 10:46:02;;;;;;;4.65;3.17;;;14.50;82.20;;;;;;5053618;28;20178;-93
2021/05/08 10:52:12;;;;;;;7.13;3.50;;;14.50;83.70;;;;;;5055177;28;20192;-94
2021/05/08 10:55:22;;;;;;;5.35;3.65;;;14.60;90.60;;;;;;5055489;28;20192;-93
2021/05/08 10:58:21;;;;;;;5.60;3.90;;;14.70;86.80;;;;;;5055919;28;20172;-91
2021/05/08 11:01:46;;;;;;;8.32;3.88;;;14.70;86.40;;;;;;5048906;28;20312;-93
2021/05/08 11:04:19;;;;;;;4.07;3.42;;;14.70;87.80;;;;;;5052869;28;20229;-92
2021/05/08 11:07:31;;;;;;;5.05;3.50;;;14.80;78.30;;;;;;5053492;28;20185;-92
2021/05/08 11:10:33;;;;;;;6.28;4.22;;;14.80;82.00;;;;;;5046179;28;20197;-94
2021/05/08 11:13:26;;;;;;;4.75;4.13;;;14.70;83.00;;;;;;5053902;28;20280;-93
2021/05/08 11:16:12;;;;;;;6.28;4.13;;;14.70;90.00;;;;;;5054062;28;20181;-93
2021/05/08 11:18:49;;;;;;;5.78;4.45;;;14.80;88.70;;;;;;5054406;28;20241;-92
2021/05/08 11:21:29;;;;;;;7.18;4.53;;;14.80;80.80;;;;;;5053740;28;20178;-91
2021/05/08 11:24:08;;;;;;;7.70;4.40;;;14.80;83.30;;;;;;5055244;28;20182;-93
2021/05/08 11:26:53;;;;;;;5.18;3.80;;;14.90;89.70;;;;;;5053241;28;20690;-92
2021/05/08 11:29:35;;;;;;;7.88;4.38;;;15.10;88.20;;;;;;5053203;28;20255;-95
2021/05/08 11:32:01;;;;;;;7.35;4.32;;;15.30;90.10;;;;;;5053890;28;20204;-92
2021/05/08 11:34:34;;;;;;;8.82;4.65;;;15.50;88.20;;;;;;5053999;28;20285;-94
2021/05/08 11:37:26;;;;;;;6.18;4.60;;;15.50;84.80;;;;;;5054645;28;20261;-94
2021/05/08 11:39:54;;;;;;;6.25;4.53;;;15.40;84.60;;;;;;5052688;28;20193;-94
2021/05/08 11:42:25;;;;;;;5.95;4.40;;;15.40;83.00;;;;;;5052973;28;20259;-91
2021/05/08 11:45:01;;;;;;;8.30;4.38;;;15.40;81.80;;;;;;5058386;28;20599;-90
2021/05/08 11:47:33;;;;;;;7.07;4.47;;;15.40;81.20;;;;;;5077009;28;20187;-94
2021/05/08 11:50:17;;;;;;;5.35;4.40;;;15.50;85.40;;;;;;5077149;28;20199;-91
2021/05/08 11:53:03;;;;;;;7.78;4.55;;;15.60;88.20;;;;;;5077772;28;20201;-89
2021/05/08 11:55:49;;;;;;;5.43;3.97;;;15.50;79.60;;;;;;5077397;28;20157;-92
2021/05/08 11:58:34;;;;;;;6.32;3.95;;;15.40;78.00;;;;;;5077081;28;20215;-95
2021/05/08 12:05:23;;;;;;;5.28;3.92;;;15.40;82.40;;;;;;5077422;28;20207;-91
2021/05/08 12:07:57;;;;;;;4.35;3.45;;;15.20;85.00;;;;;;5075807;28;20162;-92
2021/05/08 12:10:54;;;;;;;5.43;3.83;;;15.10;83.60;;;;;;5076063;28;20176;-91
2021/05/08 12:13:31;;;;;;;5.93;4.10;;;15.30;82.60;;;;;;5075991;28;20545;-90
2021/05/08 12:19:27;;;;;;;5.90;4.22;;;15.60;84.00;;;;;;5077023;28;20170;-91
2021/05/08 12:21:54;;;;;;;6.25;3.78;;;15.60;87.50;;;;;;5076392;28;20193;-93
2021/05/08 12:24:28;;;;;;;5.80;4.03;;;15.80;82.40;;;;;;5076855;28;20521;-92
2021/05/08 12:27:17;;;;;;;4.88;3.65;;;15.90;83.80;;;;;;5075993;28;20260;-90
2021/05/08 12:33:25;;;;;;;4.22;3.63;;;15.80;80.00;;;;;;5076953;28;20192;-90
2021/05/08 12:35:55;;;;;;;5.60;3.80;;;15.80;85.10;;;;;;5075352;28;20161;-90
2021/05/08 12:38:34;;;;;;;7.88;4.22;;;15.90;83.20;;;;;;5076940;28;20175;-92
2021/05/08 12:44:46;;;;;;;4.93;3.85;;;15.60;82.40;;;;;;5077874;28;20180;-92
2021/05/08 12:47:47;;;;;;;6.97;3.47;;;15.60;78.50;;;;;;5076570;28;20169;-93
2021/05/08 12:51:19;;;;;;;5.35;3.72;;;15.70;84.20;;;;;;5076083;28;20263;-92
2021/05/08 12:54:21;;;;;;;6.18;3.30;;;15.70;75.20;;;;;;4999142;28;20218;-92
2021/05/08 12:56:49;;;;;;;7.20;3.67;;;15.50;80.10;;;;;;4997871;28;20183;-93
2021/05/08 13:02:42;;;;;;;4.68;3.50;;;15.60;77.50;;;;;;5013118;28;20241;-91
2021/05/08 13:09:04;;;;;;;3.90;3.17;;;15.60;81.70;;;;;;5014346;28;20246;-92
2021/05/08 13:11:34;;;;;;;5.82;3.88;;;15.60;84.50;;;;;;4997971;28;20174;-91
2021/05/08 13:17:25;;;;;;;5.35;3.03;;;16.00;79.50;;;;;;4975634;28;20196;-90
2021/05/08 13:20:28;;;;;;;3.25;2.72;;;16.10;83.30;;;;;;4997057;28;20295;-93
2021/05/08 13:23:12;;;;;;;3.83;2.80;;;16.10;78.00;;;;;;4997499;28;20207;-90
2021/05/08 13:25:51;;;;;;;3.28;2.83;;;16.10;78.90;;;;;;4997368;28;20175;-90
2021/05/08 13:28:29;;;;;;;3.65;2.45;;;16.00;83.20;;;;;;4997641;28;20202;-92
2021/05/08 13:30:57;;;;;;;4.20;2.45;;;16.00;81.90;;;;;;5075187;28;20811;-91
2021/05/08 13:33:49;;;;;;;5.55;2.78;;;15.90;79.10;;;;;;5074747;28;20247;-91
2021/05/08 13:36:34;;;;;;;8.20;2.75;;;15.80;79.10;;;;;;5075024;28;20647;-91
2021/05/08 13:39:11;;;;;;;3.92;2.50;;;15.60;79.00;;;;;;5074690;28;20196;-92
2021/05/08 13:41:40;;;;;;;3.50;2.33;;;15.50;80.10;;;;;;5074153;28;20659;-92
2021/05/08 13:44:28;;;;;;;4.85;2.55;;;15.40;78.00;;;;;;5075375;28;20619;-93
2021/05/08 13:47:29;;;;;;;4.90;2.65;;;15.30;78.90;;;;;;5074943;28;20671;-91